Time;durP1;ratioP1;P1;durP2;ratioP2;P2;SDS_P1;SDS_P2;PMS_P1;PMS_P2;Temp;Humidity;BMP_temperature;BMP_pressure;BME280_temperature;BME280_humidity;BME280_pressure;Samples;Min_cycle;Max_cycle;Signal;HPM_P1;HPM_P2
2021/12/26 00:00:26;;;;;;;33.42;14.75;;;;;;;-5.86;100.00;101412.72;10176807;28;20050;-70
2021/12/26 00:05:24;;;;;;;27.20;13.82;;;;;;;-5.93;100.00;101406.50;10175715;28;20085;-70
2021/12/26 00:10:22;;;;;;;26.63;14.68;;;;;;;-5.96;100.00;101406.94;10166536;28;20531;-70
2021/12/26 00:15:19;;;;;;;24.55;12.25;;;;;;;-6.01;100.00;101398.66;9997356;28;20095;-70
2021/12/26 00:20:16;;;;;;;29.15;12.55;;;;;;;-6.05;100.00;101402.75;10175314;28;20145;-70
2021/12/26 00:25:13;;;;;;;26.52;11.55;;;;;;;-6.15;100.00;101393.25;10187190;28;20100;-70
2021/12/26 00:30:17;;;;;;;22.20;11.57;;;;;;;-6.19;100.00;101391.97;10179986;28;20069;-70
2021/12/26 00:35:15;;;;;;;27.33;11.90;;;;;;;-6.19;100.00;101386.66;10189283;28;20081;-70
2021/12/26 00:40:14;;;;;;;24.33;11.07;;;;;;;-6.23;100.00;101377.38;10182512;28;20077;-70
2021/12/26 00:45:12;;;;;;;23.95;10.65;;;;;;;-6.20;100.00;101379.66;10176454;28;20084;-70
2021/12/26 00:50:11;;;;;;;21.90;10.23;;;;;;;-6.19;100.00;101385.84;10170854;28;20074;-70
2021/12/26 00:55:11;;;;;;;22.08;10.80;;;;;;;-6.31;100.00;101388.19;10168647;28;20077;-71
2021/12/26 01:00:12;;;;;;;23.50;11.68;;;;;;;-6.32;100.00;101393.69;10173746;28;20050;-68
2021/12/26 01:05:09;;;;;;;23.93;11.20;;;;;;;-6.31;100.00;101388.19;10176786;28;20073;-69
2021/12/26 01:10:07;;;;;;;21.33;10.88;;;;;;;-6.33;100.00;101390.19;10183632;28;20042;-69
2021/12/26 01:15:08;;;;;;;17.83;9.82;;;;;;;-6.42;100.00;101391.34;10193783;28;20149;-71
2021/12/26 01:20:14;;;;;;;24.85;11.50;;;;;;;-6.40;100.00;101394.63;9942293;29;20102;-70
2021/12/26 01:25:11;;;;;;;20.80;10.63;;;;;;;-6.31;100.00;101398.81;9948762;28;20085;-69
2021/12/26 01:30:08;;;;;;;19.10;9.60;;;;;;;-6.29;100.00;101407.41;10183585;28;20192;-70
2021/12/26 01:35:04;;;;;;;16.65;8.90;;;;;;;-6.25;100.00;101406.03;10185188;28;20462;-71
2021/12/26 01:40:01;;;;;;;17.83;8.57;;;;;;;-6.29;100.00;101402.09;9938858;28;20079;-71
2021/12/26 01:44:57;;;;;;;17.05;8.52;;;;;;;-6.38;100.00;101408.56;10180757;28;20136;-71
2021/12/26 01:49:54;;;;;;;16.63;6.97;;;;;;;-6.26;100.00;101401.72;10170326;28;20074;-70
2021/12/26 01:55:00;;;;;;;11.57;6.32;;;;;;;-6.06;100.00;101401.91;10187942;28;20472;-70
2021/12/26 01:59:57;;;;;;;15.95;8.05;;;;;;;-6.17;100.00;101394.44;10171531;28;20130;-70
2021/12/26 02:04:53;;;;;;;18.80;7.78;;;;;;;-6.21;100.00;101393.19;10181349;28;20133;-70
2021/12/26 02:09:50;;;;;;;22.90;8.07;;;;;;;-6.30;100.00;101389.81;10180278;28;20042;-70
2021/12/26 02:14:46;;;;;;;16.20;8.02;;;;;;;-6.29;100.00;101396.78;10178863;28;20050;-70
2021/12/26 02:19:43;;;;;;;18.08;8.20;;;;;;;-6.42;100.00;101386.00;10182984;28;20041;-70
2021/12/26 02:30:07;;;;;;;14.63;7.18;;;;;;;-6.56;100.00;101390.38;9942076;29;20052;-69
2021/12/26 02:35:04;;;;;;;16.65;7.63;;;;;;;-6.62;100.00;101393.78;9944356;29;20084;-70
2021/12/26 02:40:01;;;;;;;15.50;7.28;;;;;;;-6.61;100.00;101393.59;10191106;28;20069;-70
2021/12/26 02:44:57;;;;;;;15.20;6.85;;;;;;;-6.64;100.00;101383.31;9938668;28;20141;-70
2021/12/26 02:49:58;;;;;;;15.52;7.55;;;;;;;-6.68;100.00;101392.69;9972688;28;20051;-70
2021/12/26 02:54:59;;;;;;;13.07;7.10;;;;;;;-6.79;100.00;101391.34;10180610;28;20038;-70
2021/12/26 02:59:59;;;;;;;16.15;6.95;;;;;;;-6.84;100.00;101396.41;10168104;28;20141;-70
2021/12/26 03:04:55;;;;;;;13.23;6.95;;;;;;;-6.69;100.00;101391.03;10177949;28;20133;-70
2021/12/26 03:09:58;;;;;;;15.15;7.63;;;;;;;-6.69;100.00;101379.56;10184127;28;20092;-70
2021/12/26 03:14:55;;;;;;;14.82;6.78;;;;;;;-6.87;100.00;101383.47;10184041;28;20140;-70
2021/12/26 03:19:52;;;;;;;14.85;7.95;;;;;;;-6.92;100.00;101385.03;10183646;28;20563;-70
2021/12/26 03:24:48;;;;;;;14.77;8.38;;;;;;;-6.99;100.00;101388.41;10011608;28;20045;-70
2021/12/26 03:29:44;;;;;;;13.05;7.28;;;;;;;-7.03;100.00;101381.84;10025376;28;20472;-70
2021/12/26 03:34:46;;;;;;;12.95;7.47;;;;;;;-7.03;100.00;101376.53;10007169;28;20463;-71
2021/12/26 03:39:43;;;;;;;10.33;5.80;;;;;;;-7.11;100.00;101373.97;10165224;28;20124;-70
2021/12/26 03:44:39;;;;;;;13.20;7.22;;;;;;;-7.16;100.00;101376.34;10187455;28;20482;-70
2021/12/26 03:49:36;;;;;;;18.20;7.15;;;;;;;-7.18;100.00;101375.72;10181874;28;20046;-71
2021/12/26 03:54:32;;;;;;;15.52;7.57;;;;;;;-7.21;100.00;101370.78;10179695;28;20740;-70
2021/12/26 03:59:28;;;;;;;13.80;6.43;;;;;;;-7.15;100.00;101372.69;10180530;28;20129;-70
2021/12/26 04:04:26;;;;;;;12.07;6.30;;;;;;;-7.11;100.00;101375.81;10178000;28;20052;-70
2021/12/26 04:09:22;;;;;;;14.00;7.25;;;;;;;-7.07;100.00;101377.91;10180292;28;20488;-70
2021/12/26 04:14:19;;;;;;;15.35;6.88;;;;;;;-7.15;100.00;101370.03;10179141;28;20610;-70
2021/12/26 04:19:16;;;;;;;13.90;6.15;;;;;;;-7.22;100.00;101369.97;10163687;28;20081;-70
2021/12/26 04:24:13;;;;;;;20.00;6.40;;;;;;;-7.29;100.00;101362.88;10173065;28;20470;-70
2021/12/26 04:29:10;;;;;;;12.68;6.63;;;;;;;-7.30;100.00;101351.44;10165013;28;20050;-71
2021/12/26 04:34:07;;;;;;;12.82;6.00;;;;;;;-7.35;100.00;101355.69;10178681;28;20077;-70
2021/12/26 04:39:04;;;;;;;12.40;5.70;;;;;;;-7.35;100.00;101363.66;10171264;28;20464;-70
2021/12/26 04:44:00;;;;;;;14.27;6.15;;;;;;;-7.38;100.00;101375.44;10171019;28;20054;-70
2021/12/26 04:48:57;;;;;;;11.07;5.70;;;;;;;-7.50;100.00;101372.41;10173607;28;20118;-71
2021/12/26 04:53:53;;;;;;;14.05;5.97;;;;;;;-7.46;100.00;101368.38;10179031;28;20077;-70
2021/12/26 04:58:50;;;;;;;12.75;6.22;;;;;;;-7.47;100.00;101364.09;10180516;28;20039;-70
2021/12/26 05:03:46;;;;;;;13.68;5.50;;;;;;;-7.61;100.00;101356.94;10179468;28;20045;-70
2021/12/26 05:08:43;;;;;;;13.35;5.93;;;;;;;-7.53;100.00;101351.53;10169692;28;20132;-71
2021/12/26 05:13:39;;;;;;;10.65;5.43;;;;;;;-7.61;100.00;101354.31;9997340;28;20040;-71
2021/12/26 05:18:37;;;;;;;12.07;5.70;;;;;;;-7.59;100.00;101352.25;10108244;28;20125;-71
2021/12/26 05:23:33;;;;;;;13.18;6.55;;;;;;;-7.71;100.00;101353.72;10013134;28;20041;-71
2021/12/26 05:28:30;;;;;;;13.45;5.90;;;;;;;-7.73;100.00;101347.75;9933564;28;20048;-71
2021/12/26 05:33:26;;;;;;;15.00;7.18;;;;;;;-7.73;100.00;101343.28;9948091;28;20131;-70
2021/12/26 05:38:25;;;;;;;14.73;6.80;;;;;;;-7.79;100.00;101345.84;9944463;28;20049;-70
2021/12/26 05:43:22;;;;;;;16.40;7.05;;;;;;;-7.89;100.00;101338.97;9945653;29;20139;-70
2021/12/26 05:48:18;;;;;;;12.93;6.20;;;;;;;-7.91;100.00;101333.03;9945448;28;20151;-70
2021/12/26 05:53:15;;;;;;;12.98;5.80;;;;;;;-7.85;100.00;101326.97;9940831;28;20052;-70
2021/12/26 05:58:11;;;;;;;12.98;5.60;;;;;;;-7.91;100.00;101330.38;9936060;28;20099;-72
2021/12/26 06:03:08;;;;;;;12.60;6.05;;;;;;;-7.94;100.00;101336.00;10097577;28;20128;-70
2021/12/26 06:08:05;;;;;;;11.77;4.65;;;;;;;-7.96;100.00;101334.56;10179070;28;20385;-71
2021/12/26 06:13:01;;;;;;;11.07;5.28;;;;;;;-7.91;100.00;101327.72;10182187;28;20081;-71
2021/12/26 06:17:57;;;;;;;9.45;4.47;;;;;;;-7.97;100.00;101332.91;10181751;28;20595;-71
2021/12/26 06:22:54;;;;;;;13.68;4.93;;;;;;;-7.96;100.00;101322.13;10046775;28;20081;-71
2021/12/26 06:27:50;;;;;;;13.07;5.10;;;;;;;-7.95;100.00;101326.41;10072387;28;20042;-70
2021/12/26 06:32:47;;;;;;;11.95;4.68;;;;;;;-8.06;100.00;101337.47;10184832;28;20096;-71
2021/12/26 06:37:43;;;;;;;8.63;3.67;;;;;;;-8.01;100.00;101337.75;10055959;28;20127;-71
2021/12/26 06:42:43;;;;;;;11.20;4.47;;;;;;;-8.07;100.00;101343.78;10055703;28;20088;-71
2021/12/26 06:47:39;;;;;;;11.50;4.60;;;;;;;-8.09;100.00;101340.50;10182507;28;20046;-70
2021/12/26 06:52:36;;;;;;;13.65;5.10;;;;;;;-8.07;100.00;101338.47;10178411;28;20045;-71
2021/12/26 06:57:33;;;;;;;12.02;4.70;;;;;;;-8.16;100.00;101351.00;10171265;28;20128;-71
2021/12/26 07:02:29;;;;;;;10.50;3.80;;;;;;;-8.13;100.00;101349.81;10179069;28;20491;-71
2021/12/26 07:07:26;;;;;;;11.13;4.68;;;;;;;-8.06;100.00;101354.22;10174466;28;20045;-70
2021/12/26 07:12:23;;;;;;;11.40;4.45;;;;;;;-8.18;100.00;101355.66;10171145;28;20105;-70
2021/12/26 07:17:19;;;;;;;9.25;4.45;;;;;;;-8.21;100.00;101353.34;10180930;28;20717;-71
2021/12/26 07:22:16;;;;;;;11.70;4.50;;;;;;;-8.20;100.00;101367.44;10182487;28;20104;-71
2021/12/26 07:27:16;;;;;;;11.65;5.10;;;;;;;-8.22;100.00;101370.25;10182988;28;20077;-71
2021/12/26 07:32:12;;;;;;;10.65;4.80;;;;;;;-8.22;100.00;101378.22;10179506;28;20087;-70
2021/12/26 07:37:09;;;;;;;7.75;4.03;;;;;;;-8.25;100.00;101363.50;10184850;28;20049;-70
2021/12/26 07:42:06;;;;;;;11.32;4.65;;;;;;;-8.19;100.00;101358.47;10180564;28;20046;-70
2021/12/26 07:47:04;;;;;;;11.57;4.53;;;;;;;-8.15;100.00;101362.41;10186806;28;20046;-70
2021/12/26 07:52:01;;;;;;;7.15;3.65;;;;;;;-8.16;100.00;101366.09;10180243;28;20128;-71
2021/12/26 07:56:58;;;;;;;12.32;4.53;;;;;;;-8.01;100.00;101358.97;10178614;28;20043;-70
2021/12/26 08:01:54;;;;;;;12.10;4.05;;;;;;;-7.97;100.00;101360.28;10171634;28;20039;-71
2021/12/26 08:06:53;;;;;;;13.90;4.97;;;;;;;-7.95;100.00;101366.22;10181102;28;20165;-71
2021/12/26 08:11:49;;;;;;;13.95;5.00;;;;;;;-8.02;100.00;101352.03;10187915;28;20045;-70
2021/12/26 08:16:46;;;;;;;18.48;6.13;;;;;;;-8.03;100.00;101353.03;10172925;28;20651;-70
2021/12/26 08:21:43;;;;;;;9.23;4.93;;;;;;;-8.00;100.00;101365.94;10172589;28;20037;-70
2021/12/26 08:26:40;;;;;;;9.35;4.32;;;;;;;-8.00;100.00;101360.66;10170487;28;20104;-70
2021/12/26 08:31:36;;;;;;;9.13;4.50;;;;;;;-7.97;100.00;101359.47;10182746;28;20389;-69
2021/12/26 08:36:33;;;;;;;9.88;4.65;;;;;;;-7.85;100.00;101358.81;10175778;28;20041;-70
2021/12/26 08:41:30;;;;;;;9.70;4.45;;;;;;;-7.83;100.00;101354.16;10103998;28;20127;-70
2021/12/26 08:46:26;;;;;;;12.18;4.93;;;;;;;-7.63;100.00;101361.63;9948053;28;20041;-71
2021/12/26 08:51:23;;;;;;;11.73;5.10;;;;;;;-7.55;100.00;101358.84;10017456;28;20493;-70
2021/12/26 08:56:19;;;;;;;9.75;4.53;;;;;;;-7.48;100.00;101354.47;10179229;28;20050;-70
2021/12/26 09:01:16;;;;;;;10.23;4.90;;;;;;;-7.37;100.00;101355.03;10117768;28;20049;-70
2021/12/26 09:06:13;;;;;;;12.80;5.05;;;;;;;-7.36;100.00;101357.47;9999825;28;20464;-70
2021/12/26 09:11:10;;;;;;;11.57;5.30;;;;;;;-7.20;100.00;101357.28;10167769;28;20088;-70
2021/12/26 09:16:06;;;;;;;11.27;5.25;;;;;;;-7.06;100.00;101362.78;10188981;28;20492;-70
2021/12/26 09:21:03;;;;;;;10.38;4.28;;;;;;;-6.85;100.00;101372.63;10179028;28;20077;-70
2021/12/26 09:26:00;;;;;;;10.18;4.32;;;;;;;-6.62;100.00;101375.97;10182572;28;20191;-71
2021/12/26 09:30:56;;;;;;;10.85;4.20;;;;;;;-6.46;100.00;101368.78;10186337;28;20065;-71
2021/12/26 09:35:53;;;;;;;11.68;5.28;;;;;;;-6.26;100.00;101367.13;10191477;28;20466;-70
2021/12/26 09:40:49;;;;;;;9.68;4.20;;;;;;;-5.85;100.00;101371.72;10191855;28;20042;-70
2021/12/26 09:45:46;;;;;;;11.25;4.75;;;;;;;-5.37;100.00;101369.19;10171677;28;20089;-71
2021/12/26 09:50:42;;;;;;;9.73;3.78;;;;;;;-4.82;100.00;101355.91;10074220;28;20072;-70
2021/12/26 09:55:40;;;;;;;8.80;3.63;;;;;;;-4.52;100.00;101359.06;10177308;28;20069;-70
2021/12/26 10:00:41;;;;;;;8.80;3.90;;;;;;;-4.16;100.00;101360.53;10181572;28;20050;-70
2021/12/26 10:06:04;;;;;;;11.20;3.88;;;;;;;-4.06;100.00;101360.97;10176773;28;20049;-70
2021/12/26 10:11:14;;;;;;;9.15;3.80;;;;;;;-3.87;100.00;101347.81;10131116;28;20080;-71
2021/12/26 10:16:12;;;;;;;8.63;3.63;;;;;;;-3.86;100.00;101333.44;10024844;28;20077;-70
2021/12/26 10:21:22;;;;;;;10.57;4.40;;;;;;;-3.64;100.00;101326.81;10186873;28;20046;-71
2021/12/26 10:26:20;;;;;;;10.48;4.65;;;;;;;-3.47;100.00;101321.84;10185471;28;20089;-71
2021/12/26 10:31:16;;;;;;;11.25;3.85;;;;;;;-3.20;100.00;101311.06;10193334;28;20065;-71
2021/12/26 10:36:13;;;;;;;10.00;3.40;;;;;;;-3.10;100.00;101310.63;10184916;28;20136;-71
2021/12/26 10:41:24;;;;;;;7.57;3.80;;;;;;;-2.88;100.00;101314.59;10180016;28;20066;-71
2021/12/26 10:46:20;;;;;;;7.97;3.58;;;;;;;-2.71;100.00;101306.91;10116810;28;20083;-70
2021/12/26 10:51:35;;;;;;;6.32;3.05;;;;;;;-2.78;100.00;101304.28;10006270;28;20065;-71
2021/12/26 10:56:31;;;;;;;7.07;3.08;;;;;;;-2.69;100.00;101295.97;10179769;28;20507;-70
2021/12/26 11:01:41;;;;;;;5.82;2.63;;;;;;;-2.71;99.62;101288.19;10182286;28;20061;-70
2021/12/26 11:07:08;;;;;;;8.43;3.00;;;;;;;-2.71;100.00;101290.03;10178771;28;20382;-70
2021/12/26 11:12:09;;;;;;;6.88;2.95;;;;;;;-2.52;100.00;101281.03;10182474;28;20097;-70
2021/12/26 11:17:07;;;;;;;6.43;2.17;;;;;;;-2.54;100.00;101277.75;10185114;28;20109;-70
2021/12/26 11:22:04;;;;;;;6.45;2.72;;;;;;;-1.98;100.00;101271.50;10169214;28;20042;-70
2021/12/26 11:27:02;;;;;;;6.20;2.65;;;;;;;-1.85;96.16;101264.41;10184027;28;20482;-70
2021/12/26 11:31:58;;;;;;;6.55;2.58;;;;;;;-1.84;91.04;101266.03;10186030;28;20574;-72
2021/12/26 11:36:55;;;;;;;5.63;2.75;;;;;;;-1.65;88.03;101264.19;10180334;28;20085;-70
2021/12/26 11:42:33;;;;;;;8.20;2.92;;;;;;;-1.70;86.64;101251.44;10086990;28;20072;-70
2021/12/26 11:47:58;;;;;;;7.32;2.40;;;;;;;-1.77;90.13;101250.69;9942907;28;20120;-70
2021/12/26 11:52:57;;;;;;;5.25;2.50;;;;;;;-1.53;90.18;101252.50;10095298;28;20065;-70
2021/12/26 11:57:59;;;;;;;7.10;2.33;;;;;;;-1.27;86.06;101250.53;10184682;28;20132;-70
2021/12/26 12:02:58;;;;;;;8.43;2.37;;;;;;;-1.14;81.24;101249.53;10172320;28;20050;-70
2021/12/26 12:08:00;;;;;;;5.90;2.42;;;;;;;-1.11;79.23;101227.63;10185065;28;20877;-71
2021/12/26 12:12:56;;;;;;;7.82;3.13;;;;;;;-0.78;76.21;101220.97;10174667;28;20042;-70
2021/12/26 12:18:09;;;;;;;8.07;2.13;;;;;;;-0.39;68.20;101230.25;10178953;28;20557;-70
2021/12/26 12:23:08;;;;;;;5.85;2.35;;;;;;;-0.09;65.65;101219.41;10179697;28;20126;-70
2021/12/26 12:28:15;;;;;;;6.90;2.40;;;;;;;0.62;61.44;101224.63;10032476;28;20162;-72
2021/12/26 12:33:17;;;;;;;7.25;2.17;;;;;;;1.27;54.70;101209.94;10086679;28;20050;-70
2021/12/26 12:38:25;;;;;;;5.07;2.28;;;;;;;1.42;53.66;101212.91;10177106;28;20054;-70
2021/12/26 12:43:24;;;;;;;4.72;2.05;;;;;;;1.30;52.29;101220.25;10182245;28;20088;-70
2021/12/26 12:48:25;;;;;;;5.68;1.95;;;;;;;1.65;55.04;101221.91;10182958;28;20042;-70
2021/12/26 12:53:44;;;;;;;7.20;2.10;;;;;;;1.36;50.61;101219.25;10175464;28;20539;-70
2021/12/26 12:58:41;;;;;;;5.05;2.45;;;;;;;1.34;51.73;101213.28;10177388;28;20045;-70
2021/12/26 13:03:37;;;;;;;5.53;2.22;;;;;;;0.96;50.19;101219.38;10176860;28;20163;-71
2021/12/26 13:08:34;;;;;;;6.65;2.17;;;;;;;0.89;49.76;101208.75;10179549;28;20452;-70
2021/12/26 13:13:31;;;;;;;7.53;2.28;;;;;;;0.79;51.97;101209.38;10180494;28;20065;-71
2021/12/26 13:18:37;;;;;;;8.48;2.58;;;;;;;0.96;51.17;101213.97;10187918;28;20050;-70
2021/12/26 13:23:36;;;;;;;6.90;2.50;;;;;;;0.94;51.47;101211.53;10185266;28;20471;-71
2021/12/26 13:28:34;;;;;;;5.45;1.88;;;;;;;0.40;49.34;101200.25;10199917;28;20042;-70
2021/12/26 13:33:36;;;;;;;6.38;3.08;;;;;;;0.22;50.63;101203.91;10187213;28;20081;-70
2021/12/26 13:38:33;;;;;;;12.35;2.33;;;;;;;0.04;52.23;101188.75;10185931;28;20555;-71
2021/12/26 13:43:31;;;;;;;4.97;2.00;;;;;;;-0.26;50.53;101181.63;10180652;28;20121;-70
2021/12/26 13:48:29;;;;;;;7.15;2.17;;;;;;;-0.48;53.32;101188.66;10190292;28;20049;-71
2021/12/26 13:53:36;;;;;;;7.90;2.83;;;;;;;-0.67;55.55;101183.38;10188168;28;20100;-70
2021/12/26 13:58:36;;;;;;;5.78;2.35;;;;;;;-0.84;55.86;101190.47;10189815;28;20042;-70
2021/12/26 14:03:33;;;;;;;8.07;2.30;;;;;;;-0.96;54.70;101192.31;10186157;28;20504;-70
2021/12/26 14:08:30;;;;;;;7.85;2.67;;;;;;;-1.20;56.97;101197.59;10013761;28;20462;-70
2021/12/26 14:13:28;;;;;;;7.00;2.97;;;;;;;-1.41;59.66;101190.06;9934948;28;20091;-70
2021/12/26 14:18:34;;;;;;;5.55;2.30;;;;;;;-1.44;57.89;101185.13;10095831;28;20089;-70
2021/12/26 14:23:40;;;;;;;8.02;2.40;;;;;;;-1.60;58.74;101189.25;10174613;28;20042;-70
2021/12/26 14:28:46;;;;;;;5.78;2.13;;;;;;;-1.70;58.99;101192.44;10184032;28;20096;-70
2021/12/26 14:33:49;;;;;;;6.05;2.13;;;;;;;-1.74;61.12;101181.38;10175443;28;20057;-71
2021/12/26 14:39:04;;;;;;;6.03;2.30;;;;;;;-2.03;62.57;101182.94;10187913;28;20092;-71
2021/12/26 14:44:11;;;;;;;7.47;1.85;;;;;;;-2.21;62.07;101180.22;10173702;28;20084;-70
2021/12/26 14:49:11;;;;;;;5.55;2.10;;;;;;;-2.48;61.71;101185.00;10178274;28;20049;-70
2021/12/26 14:54:11;;;;;;;7.32;2.72;;;;;;;-2.47;61.92;101176.78;10185353;28;20050;-69
2021/12/26 14:59:21;;;;;;;6.85;2.40;;;;;;;-2.46;71.58;101178.44;10185498;28;20054;-70
2021/12/26 15:04:18;;;;;;;5.65;2.42;;;;;;;-2.65;73.38;101180.22;10180810;28;20112;-69
2021/12/26 15:09:44;;;;;;;8.88;2.90;;;;;;;-2.83;68.79;101175.63;10190333;28;20092;-70
2021/12/26 15:14:40;;;;;;;6.43;2.22;;;;;;;-2.86;72.73;101184.09;10176283;28;20038;-70
2021/12/26 15:19:38;;;;;;;6.28;2.40;;;;;;;-2.99;76.89;101181.53;10177857;28;20362;-69
2021/12/26 15:24:52;;;;;;;6.15;2.35;;;;;;;-3.30;75.56;101182.31;10179307;28;20119;-70
2021/12/26 15:29:49;;;;;;;7.90;2.92;;;;;;;-3.50;80.37;101177.09;10169731;28;20050;-69
2021/12/26 15:34:48;;;;;;;5.75;2.85;;;;;;;-3.47;79.56;101176.66;10185073;28;20132;-70
2021/12/26 15:39:45;;;;;;;7.95;2.85;;;;;;;-3.50;83.03;101171.75;10187175;28;20140;-69
2021/12/26 15:44:41;;;;;;;5.72;2.53;;;;;;;-3.57;83.92;101171.78;10183443;28;20522;-70
2021/12/26 15:49:39;;;;;;;7.32;2.55;;;;;;;-3.57;89.82;101165.59;10180235;28;20069;-70
2021/12/26 15:54:35;;;;;;;7.90;3.28;;;;;;;-3.84;90.61;101157.69;10188200;28;20416;-70
2021/12/26 15:59:32;;;;;;;7.68;2.60;;;;;;;-3.84;89.00;101150.50;10175043;28;20050;-70
2021/12/26 16:04:29;;;;;;;7.60;3.13;;;;;;;-3.82;89.67;101142.28;10180694;28;20044;-70
2021/12/26 16:09:25;;;;;;;8.52;3.30;;;;;;;-3.89;94.02;101133.47;10176509;28;20133;-70
2021/12/26 16:14:21;;;;;;;6.72;2.33;;;;;;;-4.05;95.25;101130.22;10184623;28;20073;-70
2021/12/26 16:19:18;;;;;;;8.00;2.55;;;;;;;-4.14;93.36;101134.16;10177465;28;20782;-70
2021/12/26 16:24:14;;;;;;;8.45;3.15;;;;;;;-4.22;92.63;101134.41;10181650;28;20120;-69
2021/12/26 16:29:13;;;;;;;7.45;3.42;;;;;;;-4.24;92.88;101133.78;10165712;28;20065;-69
2021/12/26 16:34:09;;;;;;;5.60;2.67;;;;;;;-4.40;94.92;101123.56;10174048;28;20104;-70
2021/12/26 16:39:06;;;;;;;6.30;2.58;;;;;;;-4.29;92.62;101114.91;10181674;28;20124;-70
2021/12/26 16:44:03;;;;;;;8.55;2.92;;;;;;;-4.47;96.13;101129.72;10183100;28;20457;-70
2021/12/26 16:49:00;;;;;;;9.00;2.72;;;;;;;-4.45;97.03;101122.34;9980486;28;20531;-71
2021/12/26 16:53:57;;;;;;;10.88;2.72;;;;;;;-4.67;98.50;101123.59;10131528;28;20065;-71
2021/12/26 16:58:54;;;;;;;7.15;2.58;;;;;;;-4.52;97.19;101126.88;10180384;28;20444;-71
2021/12/26 17:03:50;;;;;;;8.77;3.65;;;;;;;-4.59;97.64;101126.06;10179248;28;20542;-71
2021/12/26 17:08:47;;;;;;;8.32;3.33;;;;;;;-4.69;99.14;101130.97;10182597;28;20103;-71
2021/12/26 17:13:44;;;;;;;8.90;2.83;;;;;;;-4.78;96.47;101126.88;10170537;28;20038;-71
2021/12/26 17:18:40;;;;;;;7.70;2.97;;;;;;;-4.78;96.55;101125.06;10174178;28;20489;-71
2021/12/26 17:23:38;;;;;;;7.18;2.97;;;;;;;-4.77;94.32;101123.19;10172942;28;20096;-71
2021/12/26 17:28:35;;;;;;;6.80;3.13;;;;;;;-4.90;96.20;101135.53;10174630;28;20050;-71
2021/12/26 17:33:36;;;;;;;8.52;3.30;;;;;;;-4.91;96.17;101127.72;10175792;28;20108;-71
2021/12/26 17:38:34;;;;;;;8.00;3.10;;;;;;;-4.86;94.55;101126.06;10175218;28;20082;-71
2021/12/26 17:43:31;;;;;;;8.60;3.22;;;;;;;-4.88;96.43;101128.13;10170330;28;20046;-71
2021/12/26 17:48:27;;;;;;;8.50;3.22;;;;;;;-4.91;96.53;101123.19;10181070;28;20120;-71
2021/12/26 17:53:24;;;;;;;7.65;3.35;;;;;;;-4.77;94.33;101107.19;10175464;28;20088;-71
2021/12/26 17:58:20;;;;;;;11.73;3.70;;;;;;;-4.72;93.24;101118.06;10164215;28;20115;-69
2021/12/26 18:03:17;;;;;;;6.57;3.33;;;;;;;-4.99;94.48;101115.41;10169553;28;20089;-75
2021/12/26 18:08:14;;;;;;;8.18;3.42;;;;;;;-5.02;92.39;101115.81;10172860;28;20157;-71
2021/12/26 18:13:11;;;;;;;7.05;3.05;;;;;;;-5.03;93.52;101111.50;10174108;28;20104;-71
2021/12/26 18:18:07;;;;;;;6.15;2.67;;;;;;;-5.02;93.82;101107.00;10171955;28;20078;-70
2021/12/26 18:23:05;;;;;;;7.22;3.03;;;;;;;-5.01;92.58;101098.78;10164578;28;20491;-71
2021/12/26 18:28:02;;;;;;;7.18;2.85;;;;;;;-5.22;92.95;101094.47;10174107;28;20066;-71
2021/12/26 18:33:00;;;;;;;7.57;3.47;;;;;;;-5.12;95.01;101088.75;10175778;28;20153;-70
2021/12/26 18:37:57;;;;;;;7.90;3.22;;;;;;;-5.13;94.27;101081.75;10170547;28;20575;-70
2021/12/26 18:42:55;;;;;;;9.50;3.80;;;;;;;-5.28;95.45;101079.28;10173609;28;20046;-70
2021/12/26 18:47:52;;;;;;;10.75;3.20;;;;;;;-5.25;95.20;101089.53;10162993;28;20139;-71
2021/12/26 18:52:49;;;;;;;6.63;3.40;;;;;;;-5.29;95.93;101078.47;10172823;28;20054;-72
2021/12/26 18:57:47;;;;;;;13.30;4.65;;;;;;;-5.33;93.45;101071.91;10160150;28;20050;-72
2021/12/26 19:02:47;;;;;;;7.00;3.05;;;;;;;-5.32;92.83;101073.53;10160476;28;20485;-71
2021/12/26 19:07:44;;;;;;;8.50;3.33;;;;;;;-5.43;96.08;101065.31;10177866;28;20760;-72
2021/12/26 19:12:41;;;;;;;15.80;3.45;;;;;;;-5.37;93.71;101070.66;10164182;28;20135;-69
2021/12/26 19:17:37;;;;;;;13.57;4.22;;;;;;;-5.40;91.47;101071.09;10160780;28;20416;-70
2021/12/26 19:22:34;;;;;;;9.10;2.97;;;;;;;-5.34;87.47;101072.09;10168963;28;20076;-70
2021/12/26 19:27:30;;;;;;;9.70;2.83;;;;;;;-5.34;91.30;101070.28;10175844;28;20070;-70
2021/12/26 19:32:27;;;;;;;9.57;2.83;;;;;;;-5.36;92.83;101069.66;10171808;28;20092;-70
2021/12/26 19:37:26;;;;;;;6.00;2.63;;;;;;;-5.26;95.35;101065.78;10175898;28;20054;-70
2021/12/26 19:42:23;;;;;;;8.43;2.80;;;;;;;-5.33;89.21;101061.25;10162308;28;20100;-70
2021/12/26 19:47:19;;;;;;;5.13;2.58;;;;;;;-5.29;91.78;101061.69;10166172;28;20581;-71
2021/12/26 19:52:16;;;;;;;7.13;2.70;;;;;;;-5.22;91.29;101058.97;10174005;28;20116;-70
2021/12/26 19:57:12;;;;;;;7.45;2.92;;;;;;;-5.22;88.23;101056.31;10163746;28;20046;-70
2021/12/26 20:02:09;;;;;;;6.45;2.97;;;;;;;-5.26;91.65;101055.13;10169877;28;20078;-70
2021/12/26 20:07:06;;;;;;;9.90;3.58;;;;;;;-5.32;94.29;101046.88;10167024;28;20065;-70
2021/12/26 20:12:03;;;;;;;8.15;2.95;;;;;;;-5.25;94.25;101049.56;10171732;28;20142;-70
2021/12/26 20:16:59;;;;;;;9.38;3.28;;;;;;;-5.39;94.27;101039.91;10174366;28;20073;-70
2021/12/26 20:21:56;;;;;;;6.65;3.20;;;;;;;-5.37;96.71;101038.69;10183342;28;20080;-70
2021/12/26 20:26:55;;;;;;;8.65;2.65;;;;;;;-5.40;98.31;101044.44;10176265;28;20088;-70
2021/12/26 20:31:51;;;;;;;8.15;3.00;;;;;;;-5.35;96.56;101047.31;10173248;28;20425;-70
2021/12/26 20:36:49;;;;;;;6.75;2.78;;;;;;;-5.35;94.28;101033.16;10089945;28;20076;-68
2021/12/26 20:41:55;;;;;;;7.63;3.80;;;;;;;-5.38;97.24;101037.06;9964414;28;20084;-70
2021/12/26 20:46:51;;;;;;;10.07;3.53;;;;;;;-5.50;93.41;101038.66;10048655;28;20119;-70
2021/12/26 20:51:48;;;;;;;10.60;3.17;;;;;;;-5.39;95.53;101030.06;10173947;28;20085;-71
2021/12/26 20:56:44;;;;;;;6.82;3.17;;;;;;;-5.28;91.29;101021.47;10121267;28;20042;-69
2021/12/26 21:01:41;;;;;;;7.05;2.80;;;;;;;-5.28;91.08;101016.13;10002749;28;20076;-73
2021/12/26 21:06:38;;;;;;;8.25;3.22;;;;;;;-5.21;91.42;101004.66;10028289;28;20049;-73
2021/12/26 21:11:35;;;;;;;10.40;4.30;;;;;;;-5.39;90.06;100997.28;10163954;28;20140;-73
2021/12/26 21:16:31;;;;;;;8.25;3.40;;;;;;;-5.44;89.80;100995.22;10164744;28;20042;-72
2021/12/26 21:21:28;;;;;;;13.35;3.45;;;;;;;-5.42;89.79;100993.19;10162982;28;20070;-72
2021/12/26 21:26:24;;;;;;;12.98;3.75;;;;;;;-5.46;93.11;100986.63;10151048;28;20134;-71
2021/12/26 21:31:21;;;;;;;8.98;3.33;;;;;;;-5.46;90.72;100981.28;10176967;28;20080;-71
2021/12/26 21:36:17;;;;;;;8.68;3.40;;;;;;;-5.52;89.94;100979.47;10167965;28;20050;-71
2021/12/26 21:41:14;;;;;;;8.48;3.30;;;;;;;-5.39;90.05;100975.97;10174001;28;20128;-71
2021/12/26 21:46:11;;;;;;;9.02;4.15;;;;;;;-5.29;89.98;100977.19;10187333;28;20103;-70
2021/12/26 21:51:07;;;;;;;10.07;3.78;;;;;;;-5.34;89.64;100953.00;10182584;28;20057;-71
2021/12/26 21:56:05;;;;;;;9.32;3.40;;;;;;;-5.34;86.56;100958.34;10142879;28;20201;-67
2021/12/26 22:01:01;;;;;;;7.13;2.97;;;;;;;-5.46;89.67;100954.63;10018302;28;20119;-70
2021/12/26 22:05:58;;;;;;;12.55;4.93;;;;;;;-5.43;92.61;100959.56;10181686;28;20073;-69
2021/12/26 22:10:54;;;;;;;10.25;3.80;;;;;;;-5.35;93.14;100961.19;10178920;28;20041;-70
2021/12/26 22:15:51;;;;;;;9.77;4.22;;;;;;;-5.32;94.15;100950.13;10175262;28;20050;-69
2021/12/26 22:20:47;;;;;;;10.57;4.30;;;;;;;-5.31;94.05;100946.44;10175139;28;20500;-69
2021/12/26 22:25:44;;;;;;;12.23;4.30;;;;;;;-5.33;96.51;100935.97;10175729;28;20133;-68
2021/12/26 22:30:40;;;;;;;11.70;4.47;;;;;;;-5.49;94.49;100933.75;10189494;28;20076;-68
2021/12/26 22:35:39;;;;;;;10.27;3.92;;;;;;;-5.55;93.78;100929.22;10173764;28;20069;-68
2021/12/26 22:40:36;;;;;;;10.77;4.30;;;;;;;-5.33;92.65;100927.97;10190022;28;20177;-66